sensor_id;sensor_type;location;lat;lon;timestamp;pressure;altitude;pressure_sealevel;temperature;humidity
31225;BME280;17847;31.524;74.366;2023-03-13T00:02:15;98951.16;;;21.22;67.42
31225;BME280;17847;31.524;74.366;2023-03-13T00:04:57;98968.78;;;20.86;68.27
31225;BME280;17847;31.524;74.366;2023-03-13T00:07:53;98972.47;;;21.02;67.37
31225;BME280;17847;31.524;74.366;2023-03-13T00:10:38;98964.75;;;20.84;68.90
31225;BME280;17847;31.524;74.366;2023-03-13T00:13:27;98965.28;;;20.86;67.52
31225;BME280;17847;31.524;74.366;2023-03-13T00:16:08;98966.28;;;20.58;68.13
31225;BME280;17847;31.524;74.366;2023-03-13T00:19:05;98966.06;;;20.38;68.97
31225;BME280;17847;31.524;74.366;2023-03-13T00:21:49;98960.41;;;20.23;68.67
31225;BME280;17847;31.524;74.366;2023-03-13T00:24:45;98949.28;;;20.14;67.96
31225;BME280;17847;31.524;74.366;2023-03-13T00:27:35;98953.06;;;20.13;69.05
31225;BME280;17847;31.524;74.366;2023-03-13T00:30:30;98966.13;;;20.04;68.62
31225;BME280;17847;31.524;74.366;2023-03-13T00:33:12;98970.91;;;20.02;69.77
31225;BME280;17847;31.524;74.366;2023-03-13T00:36:11;98957.97;;;19.99;70.02
31225;BME280;17847;31.524;74.366;2023-03-13T00:38:55;98968.81;;;20.04;70.86
31225;BME280;17847;31.524;74.366;2023-03-13T00:41:51;98964.56;;;20.08;70.25
31225;BME280;17847;31.524;74.366;2023-03-13T00:44:27;98969.53;;;20.00;70.86
31225;BME280;17847;31.524;74.366;2023-03-13T00:47:23;98970.50;;;19.94;71.15
31225;BME280;17847;31.524;74.366;2023-03-13T00:49:58;98969.06;;;19.86;70.44
31225;BME280;17847;31.524;74.366;2023-03-13T00:52:54;98974.09;;;19.83;71.67
31225;BME280;17847;31.524;74.366;2023-03-13T00:55:30;98976.00;;;19.82;72.02
31225;BME280;17847;31.524;74.366;2023-03-13T00:58:26;98968.25;;;19.86;71.37
31225;BME280;17847;31.524;74.366;2023-03-13T01:01:16;98969.94;;;19.75;71.72
31225;BME280;17847;31.524;74.366;2023-03-13T01:04:09;98969.72;;;19.77;72.24
31225;BME280;17847;31.524;74.366;2023-03-13T01:06:51;98968.31;;;19.74;72.01
31225;BME280;17847;31.524;74.366;2023-03-13T01:09:40;98973.88;;;19.67;72.40
31225;BME280;17847;31.524;74.366;2023-03-13T01:12:23;98971.69;;;19.64;72.75
31225;BME280;17847;31.524;74.366;2023-03-13T01:15:11;98980.63;;;19.70;73.22
31225;BME280;17847;31.524;74.366;2023-03-13T01:17:53;98985.66;;;19.66;72.65
31225;BME280;17847;31.524;74.366;2023-03-13T01:20:42;98984.28;;;19.64;73.00
31225;BME280;17847;31.524;74.366;2023-03-13T01:23:25;98978.59;;;19.60;73.18
31225;BME280;17847;31.524;74.366;2023-03-13T01:26:16;98982.97;;;19.66;73.83
31225;BME280;17847;31.524;74.366;2023-03-13T01:29:05;98986.50;;;19.67;73.33
31225;BME280;17847;31.524;74.366;2023-03-13T01:32:00;98977.38;;;19.68;72.71
31225;BME280;17847;31.524;74.366;2023-03-13T01:34:42;98985.16;;;19.69;72.57
31225;BME280;17847;31.524;74.366;2023-03-13T01:37:38;98982.25;;;19.71;72.35
31225;BME280;17847;31.524;74.366;2023-03-13T01:40:21;98983.66;;;19.73;71.79
31225;BME280;17847;31.524;74.366;2023-03-13T01:43:29;98983.25;;;19.82;71.23
31225;BME280;17847;31.524;74.366;2023-03-13T01:46:15;98993.66;;;19.95;71.75
31225;BME280;17847;31.524;74.366;2023-03-13T01:49:26;98989.66;;;19.97;71.48
31225;BME280;17847;31.524;74.366;2023-03-13T01:52:25;98998.53;;;19.98;71.73
31225;BME280;17847;31.524;74.366;2023-03-13T01:55:36;98995.72;;;20.09;71.67
31225;BME280;17847;31.524;74.366;2023-03-13T01:58:19;99007.97;;;20.17;71.42
31225;BME280;17847;31.524;74.366;2023-03-13T02:01:08;99004.78;;;20.37;71.05
31225;BME280;17847;31.524;74.366;2023-03-13T02:03:50;99013.34;;;20.34;69.84
31225;BME280;17847;31.524;74.366;2023-03-13T02:06:41;99016.81;;;20.51;71.07
31225;BME280;17847;31.524;74.366;2023-03-13T02:09:26;99018.19;;;20.53;68.48
31225;BME280;17847;31.524;74.366;2023-03-13T02:12:36;99021.44;;;20.55;67.99
31225;BME280;17847;31.524;74.366;2023-03-13T02:15:19;99034.22;;;20.65;67.89
31225;BME280;17847;31.524;74.366;2023-03-13T02:18:10;99036.03;;;20.81;68.39
31225;BME280;17847;31.524;74.366;2023-03-13T02:21:02;99037.13;;;21.02;69.61
31225;BME280;17847;31.524;74.366;2023-03-13T02:24:15;99037.38;;;21.22;68.05
31225;BME280;17847;31.524;74.366;2023-03-13T02:27:01;99037.63;;;21.47;65.42
31225;BME280;17847;31.524;74.366;2023-03-13T02:29:50;99036.81;;;22.06;62.23
31225;BME280;17847;31.524;74.366;2023-03-13T02:32:34;99042.19;;;22.43;62.21
31225;BME280;17847;31.524;74.366;2023-03-13T02:35:23;99040.56;;;22.89;59.35
31225;BME280;17847;31.524;74.366;2023-03-13T02:38:03;99049.50;;;22.94;58.96
31225;BME280;17847;31.524;74.366;2023-03-13T02:41:00;99051.31;;;22.36;59.09
31225;BME280;17847;31.524;74.366;2023-03-13T02:43:37;99056.59;;;23.05;59.84
31225;BME280;17847;31.524;74.366;2023-03-13T02:46:46;99063.00;;;24.22;57.82
31225;BME280;17847;31.524;74.366;2023-03-13T02:49:29;99067.59;;;23.91;56.65
31225;BME280;17847;31.524;74.366;2023-03-13T02:55:07;99076.75;;;24.66;53.02
31225;BME280;17847;31.524;74.366;2023-03-13T02:57:59;99080.19;;;25.02;54.28
31225;BME280;17847;31.524;74.366;2023-03-13T03:00:42;99082.66;;;24.93;52.58
31225;BME280;17847;31.524;74.366;2023-03-13T03:03:30;99088.88;;;25.58;51.61
31225;BME280;17847;31.524;74.366;2023-03-13T03:06:12;99085.63;;;25.61;50.03
31225;BME280;17847;31.524;74.366;2023-03-13T03:09:17;99096.56;;;25.85;48.65
31225;BME280;17847;31.524;74.366;2023-03-13T03:11:58;99099.97;;;26.06;49.11
31225;BME280;17847;31.524;74.366;2023-03-13T03:14:54;99098.13;;;25.57;49.18
31225;BME280;17847;31.524;74.366;2023-03-13T03:17:31;99106.19;;;25.08;51.09
31225;BME280;17847;31.524;74.366;2023-03-13T03:20:28;99101.91;;;24.77;51.57
31225;BME280;17847;31.524;74.366;2023-03-13T03:23:11;99117.69;;;24.49;52.19
31225;BME280;17847;31.524;74.366;2023-03-13T03:26:01;99123.59;;;24.72;52.26
31225;BME280;17847;31.524;74.366;2023-03-13T03:28:43;99120.88;;;24.82;50.79
31225;BME280;17847;31.524;74.366;2023-03-13T03:31:39;99124.66;;;24.81;52.41
31225;BME280;17847;31.524;74.366;2023-03-13T03:34:15;99123.03;;;24.85;52.34
31225;BME280;17847;31.524;74.366;2023-03-13T03:37:10;99130.34;;;24.79;50.95
31225;BME280;17847;31.524;74.366;2023-03-13T03:39:52;99137.41;;;24.90;49.04
31225;BME280;17847;31.524;74.366;2023-03-13T03:42:41;99135.47;;;25.01;49.55
31225;BME280;17847;31.524;74.366;2023-03-13T03:45:22;99137.41;;;24.90;47.50
31225;BME280;17847;31.524;74.366;2023-03-13T03:48:12;99136.75;;;25.19;48.16
31225;BME280;17847;31.524;74.366;2023-03-13T03:50:48;99142.16;;;25.24;47.59
31225;BME280;17847;31.524;74.366;2023-03-13T03:53:47;99136.34;;;25.50;46.83
31225;BME280;17847;31.524;74.366;2023-03-13T03:56:31;99132.56;;;25.52;45.38
31225;BME280;17847;31.524;74.366;2023-03-13T03:59:21;99138.56;;;25.48;45.67
31225;BME280;17847;31.524;74.366;2023-03-13T04:02:06;99139.41;;;25.93;47.65
31225;BME280;17847;31.524;74.366;2023-03-13T04:04:55;99144.72;;;25.64;46.47
31225;BME280;17847;31.524;74.366;2023-03-13T04:07:39;99143.63;;;26.09;46.79
31225;BME280;17847;31.524;74.366;2023-03-13T04:10:36;99141.31;;;26.31;45.87
31225;BME280;17847;31.524;74.366;2023-03-13T04:13:21;99148.66;;;25.92;49.38
31225;BME280;17847;31.524;74.366;2023-03-13T04:16:10;99146.41;;;25.99;49.02
31225;BME280;17847;31.524;74.366;2023-03-13T04:18:54;99148.63;;;25.97;49.05
31225;BME280;17847;31.524;74.366;2023-03-13T04:21:43;99154.88;;;26.36;50.04
31225;BME280;17847;31.524;74.366;2023-03-13T04:24:26;99150.00;;;26.62;49.77
31225;BME280;17847;31.524;74.366;2023-03-13T04:27:15;99150.47;;;26.07;49.48
31225;BME280;17847;31.524;74.366;2023-03-13T04:30:04;99152.72;;;25.89;49.87
31225;BME280;17847;31.524;74.366;2023-03-13T04:33:26;99161.56;;;26.10;49.36
31225;BME280;17847;31.524;74.366;2023-03-13T04:36:15;99161.19;;;26.27;50.78
31225;BME280;17847;31.524;74.366;2023-03-13T04:39:24;99155.94;;;25.97;49.40
31225;BME280;17847;31.524;74.366;2023-03-13T04:42:18;99154.91;;;26.31;49.80
31225;BME280;17847;31.524;74.366;2023-03-13T04:45:38;99150.34;;;26.22;50.98
31225;BME280;17847;31.524;74.366;2023-03-13T04:48:23;99149.03;;;26.14;48.98
31225;BME280;17847;31.524;74.366;2023-03-13T04:51:44;99149.03;;;26.48;50.07
31225;BME280;17847;31.524;74.366;2023-03-13T04:54:38;99145.56;;;26.71;48.54
31225;BME280;17847;31.524;74.366;2023-03-13T04:57:57;99147.91;;;27.12;47.87
31225;BME280;17847;31.524;74.366;2023-03-13T05:00:44;99147.09;;;26.82;49.36
31225;BME280;17847;31.524;74.366;2023-03-13T05:04:03;99149.78;;;27.35;48.87
31225;BME280;17847;31.524;74.366;2023-03-13T05:06:57;99144.34;;;27.59;45.77
31225;BME280;17847;31.524;74.366;2023-03-13T05:10:21;99143.28;;;27.31;45.45
31225;BME280;17847;31.524;74.366;2023-03-13T05:13:24;99144.00;;;27.18;46.20
31225;BME280;17847;31.524;74.366;2023-03-13T05:16:39;99146.47;;;27.81;44.87
31225;BME280;17847;31.524;74.366;2023-03-13T05:19:46;99147.53;;;27.66;45.50
31225;BME280;17847;31.524;74.366;2023-03-13T05:23:05;99138.91;;;27.78;45.04
31225;BME280;17847;31.524;74.366;2023-03-13T05:26:16;99139.66;;;27.64;44.56
31225;BME280;17847;31.524;74.366;2023-03-13T05:29:11;99137.13;;;27.68;45.71
31225;BME280;17847;31.524;74.366;2023-03-13T05:32:12;99132.19;;;28.26;43.52
31225;BME280;17847;31.524;74.366;2023-03-13T05:35:14;99132.09;;;28.64;44.14
31225;BME280;17847;31.524;74.366;2023-03-13T05:38:18;99134.19;;;28.72;42.24
31225;BME280;17847;31.524;74.366;2023-03-13T05:41:24;99125.50;;;28.83;41.07
31225;BME280;17847;31.524;74.366;2023-03-13T05:44:31;99124.66;;;29.65;40.71
31225;BME280;17847;31.524;74.366;2023-03-13T05:47:26;99126.41;;;29.61;40.82
31225;BME280;17847;31.524;74.366;2023-03-13T05:50:39;99118.53;;;29.18;38.84
31225;BME280;17847;31.524;74.366;2023-03-13T05:53:41;99119.03;;;29.48;39.13
31225;BME280;17847;31.524;74.366;2023-03-13T05:56:56;99116.25;;;29.61;39.57
31225;BME280;17847;31.524;74.366;2023-03-13T05:59:49;99110.63;;;29.58;38.10
31225;BME280;17847;31.524;74.366;2023-03-13T06:03:04;99109.88;;;29.66;39.40
31225;BME280;17847;31.524;74.366;2023-03-13T06:05:42;99108.03;;;29.75;37.66
31225;BME280;17847;31.524;74.366;2023-03-13T06:08:57;99106.03;;;29.67;37.92
31225;BME280;17847;31.524;74.366;2023-03-13T06:11:33;99100.44;;;29.85;38.37
31225;BME280;17847;31.524;74.366;2023-03-13T06:14:30;99098.97;;;30.24;38.41
31225;BME280;17847;31.524;74.366;2023-03-13T06:17:26;99097.44;;;30.09;37.77
31225;BME280;17847;31.524;74.366;2023-03-13T06:20:22;99091.88;;;30.23;36.29
31225;BME280;17847;31.524;74.366;2023-03-13T06:23:04;99077.44;;;30.45;38.07
31225;BME280;17847;31.524;74.366;2023-03-13T06:25:53;99077.66;;;30.34;33.60
31225;BME280;17847;31.524;74.366;2023-03-13T06:28:42;99080.31;;;30.79;36.65
31225;BME280;17847;31.524;74.366;2023-03-13T06:31:37;99069.34;;;30.70;34.28
31225;BME280;17847;31.524;74.366;2023-03-13T06:34:20;99064.16;;;30.38;33.86
31225;BME280;17847;31.524;74.366;2023-03-13T06:37:10;99074.28;;;30.60;33.68
31225;BME280;17847;31.524;74.366;2023-03-13T06:39:51;99058.91;;;30.81;33.63
31225;BME280;17847;31.524;74.366;2023-03-13T06:42:41;99065.69;;;30.84;33.28
31225;BME280;17847;31.524;74.366;2023-03-13T06:45:24;99061.84;;;30.85;36.16
31225;BME280;17847;31.524;74.366;2023-03-13T06:48:13;99055.31;;;31.03;35.19
31225;BME280;17847;31.524;74.366;2023-03-13T06:50:49;99050.09;;;30.84;34.08
31225;BME280;17847;31.524;74.366;2023-03-13T06:53:45;99041.41;;;30.91;34.48
31225;BME280;17847;31.524;74.366;2023-03-13T06:56:28;99029.41;;;31.09;32.90
31225;BME280;17847;31.524;74.366;2023-03-13T06:59:24;99031.22;;;31.31;34.82
31225;BME280;17847;31.524;74.366;2023-03-13T07:01:59;99028.16;;;31.15;32.17
31225;BME280;17847;31.524;74.366;2023-03-13T07:04:55;99011.88;;;31.01;34.04
31225;BME280;17847;31.524;74.366;2023-03-13T07:07:40;99000.94;;;30.62;33.93
31225;BME280;17847;31.524;74.366;2023-03-13T07:10:32;99007.81;;;30.51;34.54
31225;BME280;17847;31.524;74.366;2023-03-13T07:13:13;99003.69;;;30.62;33.43
31225;BME280;17847;31.524;74.366;2023-03-13T07:19:32;98989.88;;;30.67;33.13
31225;BME280;17847;31.524;74.366;2023-03-13T07:22:14;98983.22;;;30.59;37.09
31225;BME280;17847;31.524;74.366;2023-03-13T07:25:04;98975.97;;;30.55;34.79
31225;BME280;17847;31.524;74.366;2023-03-13T07:27:49;98980.41;;;30.90;33.46
31225;BME280;17847;31.524;74.366;2023-03-13T07:30:38;98976.06;;;30.89;37.24
31225;BME280;17847;31.524;74.366;2023-03-13T07:33:20;98965.91;;;30.81;36.79
31225;BME280;17847;31.524;74.366;2023-03-13T07:36:10;98959.50;;;30.94;33.66
31225;BME280;17847;31.524;74.366;2023-03-13T07:38:53;98959.66;;;30.89;35.03
31225;BME280;17847;31.524;74.366;2023-03-13T07:41:42;98956.91;;;30.89;34.38
31225;BME280;17847;31.524;74.366;2023-03-13T07:44:25;98953.53;;;30.75;34.25
31225;BME280;17847;31.524;74.366;2023-03-13T07:47:13;98949.03;;;30.79;33.11
31225;BME280;17847;31.524;74.366;2023-03-13T07:49:55;98948.06;;;30.84;34.00
31225;BME280;17847;31.524;74.366;2023-03-13T07:52:45;98946.78;;;30.81;33.17
31225;BME280;17847;31.524;74.366;2023-03-13T07:55:27;98941.13;;;30.77;34.76
31225;BME280;17847;31.524;74.366;2023-03-13T07:58:16;98938.09;;;30.88;34.72
31225;BME280;17847;31.524;74.366;2023-03-13T08:00:59;98916.81;;;30.67;34.64
31225;BME280;17847;31.524;74.366;2023-03-13T08:03:48;98920.50;;;30.63;34.67
31225;BME280;17847;31.524;74.366;2023-03-13T08:06:34;98909.78;;;30.75;35.40
31225;BME280;17847;31.524;74.366;2023-03-13T08:09:23;98912.31;;;30.63;34.39
31225;BME280;17847;31.524;74.366;2023-03-13T08:12:06;98892.19;;;30.59;35.92
31225;BME280;17847;31.524;74.366;2023-03-13T08:14:55;98891.75;;;30.74;34.99
31225;BME280;17847;31.524;74.366;2023-03-13T08:17:44;98893.50;;;30.70;34.00
31225;BME280;17847;31.524;74.366;2023-03-13T08:20:39;98883.69;;;30.69;33.78
31225;BME280;17847;31.524;74.366;2023-03-13T08:23:21;98879.50;;;30.63;34.10
31225;BME280;17847;31.524;74.366;2023-03-13T08:26:15;98874.50;;;30.56;34.12
31225;BME280;17847;31.524;74.366;2023-03-13T08:29:01;98867.28;;;30.60;34.38
31225;BME280;17847;31.524;74.366;2023-03-13T08:31:50;98859.06;;;30.60;34.92
31225;BME280;17847;31.524;74.366;2023-03-13T08:34:34;98857.09;;;30.44;36.39
31225;BME280;17847;31.524;74.366;2023-03-13T08:37:22;98851.91;;;30.33;34.75
31225;BME280;17847;31.524;74.366;2023-03-13T08:40:05;98850.66;;;30.40;33.02
31225;BME280;17847;31.524;74.366;2023-03-13T08:42:54;98848.78;;;30.49;34.61
31225;BME280;17847;31.524;74.366;2023-03-13T08:45:37;98839.88;;;30.43;33.98
31225;BME280;17847;31.524;74.366;2023-03-13T08:48:25;98833.97;;;30.50;34.91
31225;BME280;17847;31.524;74.366;2023-03-13T08:51:10;98825.13;;;30.53;34.78
31225;BME280;17847;31.524;74.366;2023-03-13T08:53:58;98821.69;;;30.39;33.04
31225;BME280;17847;31.524;74.366;2023-03-13T08:56:41;98819.13;;;30.42;34.51
31225;BME280;17847;31.524;74.366;2023-03-13T08:59:29;98816.78;;;30.49;34.00
31225;BME280;17847;31.524;74.366;2023-03-13T09:02:11;98806.41;;;30.38;33.59
31225;BME280;17847;31.524;74.366;2023-03-13T09:05:08;98815.91;;;30.31;35.15
31225;BME280;17847;31.524;74.366;2023-03-13T09:07:50;98805.13;;;30.26;35.17
31225;BME280;17847;31.524;74.366;2023-03-13T09:10:41;98796.75;;;30.23;31.21
31225;BME280;17847;31.524;74.366;2023-03-13T09:13:24;98800.13;;;30.28;31.06
31225;BME280;17847;31.524;74.366;2023-03-13T09:16:18;98793.56;;;30.29;30.28
31225;BME280;17847;31.524;74.366;2023-03-13T09:19:07;98789.19;;;30.28;31.53
31225;BME280;17847;31.524;74.366;2023-03-13T09:21:49;98783.88;;;30.23;31.35
31225;BME280;17847;31.524;74.366;2023-03-13T09:24:38;98772.63;;;30.16;32.65
31225;BME280;17847;31.524;74.366;2023-03-13T09:27:22;98772.16;;;30.23;31.42
31225;BME280;17847;31.524;74.366;2023-03-13T09:30:10;98767.47;;;30.15;32.11
31225;BME280;17847;31.524;74.366;2023-03-13T09:32:52;98769.41;;;30.23;30.87
31225;BME280;17847;31.524;74.366;2023-03-13T09:35:41;98764.59;;;30.28;33.28
31225;BME280;17847;31.524;74.366;2023-03-13T09:38:24;98752.56;;;30.29;32.38
31225;BME280;17847;31.524;74.366;2023-03-13T09:41:37;98754.19;;;30.30;31.18
31225;BME280;17847;31.524;74.366;2023-03-13T09:44:31;98752.56;;;30.29;31.30
31225;BME280;17847;31.524;74.366;2023-03-13T09:50:31;98750.63;;;30.13;32.51
31225;BME280;17847;31.524;74.366;2023-03-13T09:53:51;98733.56;;;30.16;32.15
31225;BME280;17847;31.524;74.366;2023-03-13T09:56:54;98734.38;;;30.16;30.49
31225;BME280;17847;31.524;74.366;2023-03-13T09:59:58;98734.84;;;30.18;32.06
31225;BME280;17847;31.524;74.366;2023-03-13T10:03:06;98732.59;;;30.12;31.96
31225;BME280;17847;31.524;74.366;2023-03-13T10:06:26;98727.13;;;30.03;32.73
31225;BME280;17847;31.524;74.366;2023-03-13T10:09:31;98723.28;;;30.04;32.38
31225;BME280;17847;31.524;74.366;2023-03-13T10:12:27;98723.09;;;30.01;31.33
31225;BME280;17847;31.524;74.366;2023-03-13T10:15:40;98720.22;;;30.06;31.90
31225;BME280;17847;31.524;74.366;2023-03-13T10:18:31;98723.09;;;30.01;32.63
31225;BME280;17847;31.524;74.366;2023-03-13T10:21:17;98720.84;;;29.94;34.15
31225;BME280;17847;31.524;74.366;2023-03-13T10:24:35;98711.47;;;29.78;31.45
31225;BME280;17847;31.524;74.366;2023-03-13T10:27:18;98711.91;;;29.63;32.50
31225;BME280;17847;31.524;74.366;2023-03-13T10:36:14;98704.63;;;29.41;34.06
31225;BME280;17847;31.524;74.366;2023-03-13T10:38:57;98701.06;;;29.40;33.71
31225;BME280;17847;31.524;74.366;2023-03-13T10:41:45;98710.50;;;29.34;34.17
31225;BME280;17847;31.524;74.366;2023-03-13T10:44:32;98703.28;;;29.30;33.71
31225;BME280;17847;31.524;74.366;2023-03-13T10:47:20;98698.75;;;29.25;33.75
31225;BME280;17847;31.524;74.366;2023-03-13T10:50:03;98699.69;;;29.21;33.35
31225;BME280;17847;31.524;74.366;2023-03-13T10:52:52;98700.13;;;29.14;34.89
31225;BME280;17847;31.524;74.366;2023-03-13T10:55:42;98700.59;;;29.08;34.12
31225;BME280;17847;31.524;74.366;2023-03-13T10:58:40;98696.56;;;29.05;34.70
31225;BME280;17847;31.524;74.366;2023-03-13T11:01:30;98700.91;;;29.06;33.44
31225;BME280;17847;31.524;74.366;2023-03-13T11:04:32;98692.22;;;29.04;33.86
31225;BME280;17847;31.524;74.366;2023-03-13T11:07:20;98689.00;;;29.02;33.85
31225;BME280;17847;31.524;74.366;2023-03-13T11:13:04;98680.66;;;28.98;35.92
31225;BME280;17847;31.524;74.366;2023-03-13T11:16:08;98684.13;;;28.90;35.87
31225;BME280;17847;31.524;74.366;2023-03-13T11:25:17;98675.16;;;28.68;36.89
31225;BME280;17847;31.524;74.366;2023-03-13T11:28:08;98675.28;;;28.63;37.54
31225;BME280;17847;31.524;74.366;2023-03-13T11:34:18;98674.09;;;28.55;37.75
31225;BME280;17847;31.524;74.366;2023-03-13T11:37:09;98666.59;;;28.61;37.82
31225;BME280;17847;31.524;74.366;2023-03-13T11:43:15;98667.84;;;28.54;38.09
31225;BME280;17847;31.524;74.366;2023-03-13T11:46:54;98661.22;;;28.47;38.30
31225;BME280;17847;31.524;74.366;2023-03-13T11:49:50;98662.94;;;28.43;38.65
31225;BME280;17847;31.524;74.366;2023-03-13T12:05:11;98664.28;;;28.09;37.31
31225;BME280;17847;31.524;74.366;2023-03-13T12:08:06;98665.78;;;28.02;37.46
31225;BME280;17847;31.524;74.366;2023-03-13T12:11:27;98664.50;;;27.99;35.53
31225;BME280;17847;31.524;74.366;2023-03-13T12:14:25;98670.34;;;27.93;35.89
31225;BME280;17847;31.524;74.366;2023-03-13T12:17:39;98675.59;;;27.89;35.31
31225;BME280;17847;31.524;74.366;2023-03-13T12:23:56;98665.97;;;27.69;35.19
31225;BME280;17847;31.524;74.366;2023-03-13T12:33:18;98673.22;;;27.47;35.90
31225;BME280;17847;31.524;74.366;2023-03-13T12:36:14;98667.19;;;27.50;34.29
31225;BME280;17847;31.524;74.366;2023-03-13T12:46:03;98681.59;;;27.37;37.37
31225;BME280;17847;31.524;74.366;2023-03-13T13:00:49;98690.31;;;26.93;40.83
31225;BME280;17847;31.524;74.366;2023-03-13T13:03:49;98696.16;;;26.86;41.08
31225;BME280;17847;31.524;74.366;2023-03-13T13:10:30;98697.09;;;26.76;42.93
31225;BME280;17847;31.524;74.366;2023-03-13T13:16:11;98700.19;;;26.70;44.78
31225;BME280;17847;31.524;74.366;2023-03-13T13:25:34;98695.66;;;26.47;45.74
31225;BME280;17847;31.524;74.366;2023-03-13T13:31:55;98699.44;;;26.32;48.30
31225;BME280;17847;31.524;74.366;2023-03-13T13:37:47;98711.69;;;26.29;48.09
31225;BME280;17847;31.524;74.366;2023-03-13T13:40:31;98717.94;;;26.30;48.80
31225;BME280;17847;31.524;74.366;2023-03-13T13:43:22;98727.09;;;26.34;48.17
31225;BME280;17847;31.524;74.366;2023-03-13T13:55:00;98728.88;;;26.25;49.55
31225;BME280;17847;31.524;74.366;2023-03-13T13:57:43;98727.03;;;26.20;50.64
31225;BME280;17847;31.524;74.366;2023-03-13T14:00:43;98735.19;;;26.20;50.52
31225;BME280;17847;31.524;74.366;2023-03-13T14:03:29;98737.06;;;26.01;50.31
31225;BME280;17847;31.524;74.366;2023-03-13T14:06:27;98742.00;;;25.75;51.34
31225;BME280;17847;31.524;74.366;2023-03-13T14:15:20;98750.63;;;25.30;53.79
31225;BME280;17847;31.524;74.366;2023-03-13T14:18:13;98750.25;;;25.13;53.30
31225;BME280;17847;31.524;74.366;2023-03-13T14:21:03;98750.88;;;25.04;54.06
31225;BME280;17847;31.524;74.366;2023-03-13T14:24:12;98758.47;;;25.02;54.30
31225;BME280;17847;31.524;74.366;2023-03-13T14:26:54;98764.50;;;24.94;54.89
31225;BME280;17847;31.524;74.366;2023-03-13T14:30:05;98766.19;;;24.85;54.03
31225;BME280;17847;31.524;74.366;2023-03-13T14:32:50;98769.72;;;24.86;54.69
31225;BME280;17847;31.524;74.366;2023-03-13T14:35:41;98773.84;;;24.78;56.32
31225;BME280;17847;31.524;74.366;2023-03-13T14:38:25;98779.59;;;24.67;55.98
31225;BME280;17847;31.524;74.366;2023-03-13T14:41:29;98791.59;;;24.55;55.40
31225;BME280;17847;31.524;74.366;2023-03-13T14:44:24;98784.91;;;24.43;55.28
31225;BME280;17847;31.524;74.366;2023-03-13T14:47:23;98784.38;;;24.41;56.52
31225;BME280;17847;31.524;74.366;2023-03-13T14:50:12;98795.47;;;24.39;57.24
31225;BME280;17847;31.524;74.366;2023-03-13T14:53:03;98788.22;;;24.30;57.25
31225;BME280;17847;31.524;74.366;2023-03-13T14:56:13;98794.50;;;24.25;58.08
31225;BME280;17847;31.524;74.366;2023-03-13T14:59:22;98792.63;;;24.21;58.26
31225;BME280;17847;31.524;74.366;2023-03-13T15:05:06;98785.34;;;24.16;58.40
31225;BME280;17847;31.524;74.366;2023-03-13T15:07:52;98798.03;;;24.10;58.59
31225;BME280;17847;31.524;74.366;2023-03-13T15:10:41;98792.09;;;24.03;58.69
31225;BME280;17847;31.524;74.366;2023-03-13T15:13:34;98789.16;;;24.00;59.38
31225;BME280;17847;31.524;74.366;2023-03-13T15:16:24;98788.34;;;23.94;58.69
31225;BME280;17847;31.524;74.366;2023-03-13T15:19:14;98787.84;;;23.92;59.53
31225;BME280;17847;31.524;74.366;2023-03-13T15:22:13;98793.25;;;23.92;59.27
31225;BME280;17847;31.524;74.366;2023-03-13T15:24:57;98793.25;;;23.87;60.37
31225;BME280;17847;31.524;74.366;2023-03-13T15:27:48;98796.25;;;23.86;60.05
31225;BME280;17847;31.524;74.366;2023-03-13T15:30:31;98796.78;;;23.83;59.78
31225;BME280;17847;31.524;74.366;2023-03-13T15:33:21;98801.69;;;23.76;59.98
31225;BME280;17847;31.524;74.366;2023-03-13T15:36:04;98800.06;;;23.80;61.18
31225;BME280;17847;31.524;74.366;2023-03-13T15:38:52;98798.97;;;23.81;61.11
31225;BME280;17847;31.524;74.366;2023-03-13T15:41:34;98793.28;;;23.77;61.09
31225;BME280;17847;31.524;74.366;2023-03-13T15:44:23;98798.75;;;23.67;60.99
31225;BME280;17847;31.524;74.366;2023-03-13T15:47:09;98801.97;;;23.69;61.48
31225;BME280;17847;31.524;74.366;2023-03-13T15:49:58;98805.25;;;23.66;61.75
31225;BME280;17847;31.524;74.366;2023-03-13T15:52:41;98807.97;;;23.61;61.30
31225;BME280;17847;31.524;74.366;2023-03-13T15:55:29;98806.63;;;23.58;61.29
31225;BME280;17847;31.524;74.366;2023-03-13T15:58:14;98809.59;;;23.52;61.60
31225;BME280;17847;31.524;74.366;2023-03-13T16:01:02;98817.44;;;23.43;61.85
31225;BME280;17847;31.524;74.366;2023-03-13T16:03:44;98816.09;;;23.41;62.41
31225;BME280;17847;31.524;74.366;2023-03-13T16:06:34;98810.13;;;23.39;62.82
31225;BME280;17847;31.524;74.366;2023-03-13T16:09:16;98806.34;;;23.35;62.03
31225;BME280;17847;31.524;74.366;2023-03-13T16:12:05;98815.03;;;23.37;63.24
31225;BME280;17847;31.524;74.366;2023-03-13T16:14:48;98804.72;;;23.34;63.49
31225;BME280;17847;31.524;74.366;2023-03-13T16:17:44;98800.41;;;23.33;63.96
31225;BME280;17847;31.524;74.366;2023-03-13T16:20:39;98802.31;;;23.32;63.67
31225;BME280;17847;31.524;74.366;2023-03-13T16:23:34;98803.66;;;23.24;64.05
31225;BME280;17847;31.524;74.366;2023-03-13T16:26:22;98795.56;;;23.19;63.93
31225;BME280;17847;31.524;74.366;2023-03-13T16:29:13;98800.44;;;23.27;63.14
31225;BME280;17847;31.524;74.366;2023-03-13T16:31:55;98801.25;;;23.23;63.13
31225;BME280;17847;31.524;74.366;2023-03-13T16:34:45;98795.59;;;23.14;63.19
31225;BME280;17847;31.524;74.366;2023-03-13T16:37:27;98802.06;;;23.08;63.09
31225;BME280;17847;31.524;74.366;2023-03-13T16:40:23;98789.91;;;23.01;63.09
31225;BME280;17847;31.524;74.366;2023-03-13T16:43:05;98792.31;;;23.02;64.09
31225;BME280;17847;31.524;74.366;2023-03-13T16:45:54;98795.84;;;22.98;63.51
31225;BME280;17847;31.524;74.366;2023-03-13T16:48:41;98794.25;;;22.92;63.38